sensor_id;sensor_type;location;lat;lon;timestamp;P1;P4;P2;P0;N10;N4;N25;N1;N05;TS
62702;SPS30;66022;50.448;18.122;2023-09-08T00:00:16;15.03;;15.03;;;;;;;
62702;SPS30;66022;50.448;18.122;2023-09-08T00:04:42;15.03;;15.03;;;;;;;
62702;SPS30;66022;50.448;18.122;2023-09-08T00:09:08;15.17;;15.17;;;;;;;
62702;SPS30;66022;50.448;18.122;2023-09-08T00:13:34;15.17;;15.17;;;;;;;
62702;SPS30;66022;50.448;18.122;2023-09-08T00:18:00;14.51;;14.50;;;;;;;
62702;SPS30;66022;50.448;18.122;2023-09-08T00:22:26;14.51;;14.50;;;;;;;
62702;SPS30;66022;50.448;18.122;2023-09-08T00:26:52;15.65;;15.65;;;;;;;
62702;SPS30;66022;50.448;18.122;2023-09-08T00:31:18;15.65;;15.65;;;;;;;
62702;SPS30;66022;50.448;18.122;2023-09-08T00:35:45;15.65;;15.65;;;;;;;
62702;SPS30;66022;50.448;18.122;2023-09-08T00:40:10;16.44;;16.44;;;;;;;
62702;SPS30;66022;50.448;18.122;2023-09-08T00:44:36;16.44;;16.44;;;;;;;
62702;SPS30;66022;50.448;18.122;2023-09-08T00:49:02;13.82;;13.82;;;;;;;
62702;SPS30;66022;50.448;18.122;2023-09-08T00:53:28;13.82;;13.82;;;;;;;
62702;SPS30;66022;50.448;18.122;2023-09-08T00:57:54;19.27;;17.54;;;;;;;
62702;SPS30;66022;50.448;18.122;2023-09-08T01:02:20;19.27;;17.54;;;;;;;
62702;SPS30;66022;50.448;18.122;2023-09-08T01:06:47;15.99;;15.99;;;;;;;
62702;SPS30;66022;50.448;18.122;2023-09-08T01:11:12;15.99;;15.99;;;;;;;
62702;SPS30;66022;50.448;18.122;2023-09-08T01:15:38;15.99;;15.99;;;;;;;
62702;SPS30;66022;50.448;18.122;2023-09-08T01:20:13;18.52;;18.52;;;;;;;
62702;SPS30;66022;50.448;18.122;2023-09-08T01:28:56;16.37;;16.37;;;;;;;
62702;SPS30;66022;50.448;18.122;2023-09-08T01:33:22;16.37;;16.37;;;;;;;
62702;SPS30;66022;50.448;18.122;2023-09-08T01:37:48;18.05;;17.94;;;;;;;
62702;SPS30;66022;50.448;18.122;2023-09-08T01:42:14;18.05;;17.94;;;;;;;
62702;SPS30;66022;50.448;18.122;2023-09-08T01:46:40;17.39;;17.39;;;;;;;
62702;SPS30;66022;50.448;18.122;2023-09-08T01:51:06;17.39;;17.39;;;;;;;
62702;SPS30;66022;50.448;18.122;2023-09-08T01:55:32;17.39;;17.39;;;;;;;
62702;SPS30;66022;50.448;18.122;2023-09-08T01:59:58;16.33;;16.33;;;;;;;
62702;SPS30;66022;50.448;18.122;2023-09-08T02:04:24;16.33;;16.33;;;;;;;
62702;SPS30;66022;50.448;18.122;2023-09-08T02:08:50;16.68;;16.67;;;;;;;
62702;SPS30;66022;50.448;18.122;2023-09-08T02:13:16;16.68;;16.67;;;;;;;
62702;SPS30;66022;50.448;18.122;2023-09-08T02:17:42;17.51;;17.50;;;;;;;
62702;SPS30;66022;50.448;18.122;2023-09-08T02:22:08;17.51;;17.50;;;;;;;
62702;SPS30;66022;50.448;18.122;2023-09-08T02:26:34;17.05;;16.96;;;;;;;
62702;SPS30;66022;50.448;18.122;2023-09-08T02:31:00;17.05;;16.96;;;;;;;
62702;SPS30;66022;50.448;18.122;2023-09-08T02:35:26;17.05;;16.96;;;;;;;
62702;SPS30;66022;50.448;18.122;2023-09-08T02:39:52;19.40;;19.40;;;;;;;
62702;SPS30;66022;50.448;18.122;2023-09-08T02:44:18;19.40;;19.40;;;;;;;
62702;SPS30;66022;50.448;18.122;2023-09-08T02:48:44;21.57;;20.63;;;;;;;
62702;SPS30;66022;50.448;18.122;2023-09-08T02:53:10;21.57;;20.63;;;;;;;
62702;SPS30;66022;50.448;18.122;2023-09-08T02:57:36;20.89;;20.88;;;;;;;
62702;SPS30;66022;50.448;18.122;2023-09-08T03:02:03;20.89;;20.88;;;;;;;
62702;SPS30;66022;50.448;18.122;2023-09-08T03:06:28;20.89;;20.88;;;;;;;
62702;SPS30;66022;50.448;18.122;2023-09-08T03:15:20;22.45;;21.79;;;;;;;
62702;SPS30;66022;50.448;18.122;2023-09-08T03:19:46;23.00;;22.25;;;;;;;
62702;SPS30;66022;50.448;18.122;2023-09-08T03:24:12;23.00;;22.25;;;;;;;
62702;SPS30;66022;50.448;18.122;2023-09-08T03:28:38;24.50;;23.22;;;;;;;
62702;SPS30;66022;50.448;18.122;2023-09-08T03:33:04;24.50;;23.22;;;;;;;
62702;SPS30;66022;50.448;18.122;2023-09-08T03:37:31;22.09;;22.09;;;;;;;
62702;SPS30;66022;50.448;18.122;2023-09-08T03:41:56;22.09;;22.09;;;;;;;
62702;SPS30;66022;50.448;18.122;2023-09-08T03:46:23;22.09;;22.09;;;;;;;
62702;SPS30;66022;50.448;18.122;2023-09-08T03:50:48;21.84;;21.84;;;;;;;
62702;SPS30;66022;50.448;18.122;2023-09-08T03:55:14;21.84;;21.84;;;;;;;
62702;SPS30;66022;50.448;18.122;2023-09-08T03:59:41;26.31;;25.36;;;;;;;
62702;SPS30;66022;50.448;18.122;2023-09-08T04:04:07;26.31;;25.36;;;;;;;
62702;SPS30;66022;50.448;18.122;2023-09-08T04:08:33;24.35;;24.26;;;;;;;
62702;SPS30;66022;50.448;18.122;2023-09-08T04:12:58;24.35;;24.26;;;;;;;
62702;SPS30;66022;50.448;18.122;2023-09-08T04:17:25;23.36;;23.36;;;;;;;
62702;SPS30;66022;50.448;18.122;2023-09-08T04:21:50;23.36;;23.36;;;;;;;
62702;SPS30;66022;50.448;18.122;2023-09-08T04:26:16;23.36;;23.36;;;;;;;
62702;SPS30;66022;50.448;18.122;2023-09-08T04:30:42;23.90;;23.90;;;;;;;
62702;SPS30;66022;50.448;18.122;2023-09-08T04:35:09;23.90;;23.90;;;;;;;
62702;SPS30;66022;50.448;18.122;2023-09-08T04:39:35;24.22;;24.14;;;;;;;
62702;SPS30;66022;50.448;18.122;2023-09-08T04:44:00;24.22;;24.14;;;;;;;
62702;SPS30;66022;50.448;18.122;2023-09-08T04:48:26;23.61;;23.60;;;;;;;
62702;SPS30;66022;50.448;18.122;2023-09-08T04:52:52;23.61;;23.60;;;;;;;
62702;SPS30;66022;50.448;18.122;2023-09-08T04:57:18;22.12;;22.12;;;;;;;
62702;SPS30;66022;50.448;18.122;2023-09-08T05:01:44;22.12;;22.12;;;;;;;
62702;SPS30;66022;50.448;18.122;2023-09-08T05:06:11;22.12;;22.12;;;;;;;
62702;SPS30;66022;50.448;18.122;2023-09-08T05:10:36;21.19;;21.19;;;;;;;
62702;SPS30;66022;50.448;18.122;2023-09-08T05:15:03;21.19;;21.19;;;;;;;
62702;SPS30;66022;50.448;18.122;2023-09-08T05:19:29;21.33;;21.33;;;;;;;
62702;SPS30;66022;50.448;18.122;2023-09-08T05:23:54;21.33;;21.33;;;;;;;
62702;SPS30;66022;50.448;18.122;2023-09-08T05:28:21;25.40;;23.60;;;;;;;
62702;SPS30;66022;50.448;18.122;2023-09-08T05:32:47;25.40;;23.60;;;;;;;
62702;SPS30;66022;50.448;18.122;2023-09-08T05:37:13;22.08;;22.08;;;;;;;
62702;SPS30;66022;50.448;18.122;2023-09-08T05:41:39;22.08;;22.08;;;;;;;
62702;SPS30;66022;50.448;18.122;2023-09-08T05:46:04;22.08;;22.08;;;;;;;
62702;SPS30;66022;50.448;18.122;2023-09-08T05:50:31;23.41;;22.89;;;;;;;
62702;SPS30;66022;50.448;18.122;2023-09-08T05:54:57;23.41;;22.89;;;;;;;
62702;SPS30;66022;50.448;18.122;2023-09-08T05:59:22;25.05;;24.18;;;;;;;
62702;SPS30;66022;50.448;18.122;2023-09-08T06:03:49;25.05;;24.18;;;;;;;
62702;SPS30;66022;50.448;18.122;2023-09-08T06:08:18;26.08;;24.48;;;;;;;
62702;SPS30;66022;50.448;18.122;2023-09-08T06:12:41;26.08;;24.48;;;;;;;
62702;SPS30;66022;50.448;18.122;2023-09-08T06:17:09;23.13;;22.83;;;;;;;
62702;SPS30;66022;50.448;18.122;2023-09-08T06:21:33;23.13;;22.83;;;;;;;
62702;SPS30;66022;50.448;18.122;2023-09-08T06:26:00;23.13;;22.83;;;;;;;
62702;SPS30;66022;50.448;18.122;2023-09-08T06:30:25;22.80;;22.78;;;;;;;
62702;SPS30;66022;50.448;18.122;2023-09-08T06:34:51;22.80;;22.78;;;;;;;
62702;SPS30;66022;50.448;18.122;2023-09-08T06:39:17;23.33;;22.56;;;;;;;
62702;SPS30;66022;50.448;18.122;2023-09-08T06:43:45;23.33;;22.56;;;;;;;
62702;SPS30;66022;50.448;18.122;2023-09-08T06:48:13;20.08;;20.08;;;;;;;
62702;SPS30;66022;50.448;18.122;2023-09-08T06:52:38;20.08;;20.08;;;;;;;
62702;SPS30;66022;50.448;18.122;2023-09-08T06:57:00;21.73;;21.29;;;;;;;
62702;SPS30;66022;50.448;18.122;2023-09-08T07:01:26;21.73;;21.29;;;;;;;
62702;SPS30;66022;50.448;18.122;2023-09-08T07:05:52;21.73;;21.29;;;;;;;
62702;SPS30;66022;50.448;18.122;2023-09-08T07:10:24;21.00;;20.43;;;;;;;
62702;SPS30;66022;50.448;18.122;2023-09-08T07:14:46;21.00;;20.43;;;;;;;
62702;SPS30;66022;50.448;18.122;2023-09-08T07:19:18;19.64;;19.64;;;;;;;
62702;SPS30;66022;50.448;18.122;2023-09-08T07:23:36;19.64;;19.64;;;;;;;
62702;SPS30;66022;50.448;18.122;2023-09-08T07:28:08;18.98;;18.98;;;;;;;
62702;SPS30;66022;50.448;18.122;2023-09-08T07:32:28;18.98;;18.98;;;;;;;
62702;SPS30;66022;50.448;18.122;2023-09-08T07:36:56;23.65;;23.55;;;;;;;
62702;SPS30;66022;50.448;18.122;2023-09-08T07:41:21;23.65;;23.55;;;;;;;
62702;SPS30;66022;50.448;18.122;2023-09-08T07:45:47;23.65;;23.55;;;;;;;
62702;SPS30;66022;50.448;18.122;2023-09-08T07:50:20;16.56;;16.56;;;;;;;
62702;SPS30;66022;50.448;18.122;2023-09-08T07:54:39;16.56;;16.56;;;;;;;
62702;SPS30;66022;50.448;18.122;2023-09-08T07:59:05;18.27;;17.95;;;;;;;
62702;SPS30;66022;50.448;18.122;2023-09-08T08:03:31;18.27;;17.95;;;;;;;
62702;SPS30;66022;50.448;18.122;2023-09-08T08:07:57;15.82;;15.82;;;;;;;
62702;SPS30;66022;50.448;18.122;2023-09-08T08:12:23;15.82;;15.82;;;;;;;
62702;SPS30;66022;50.448;18.122;2023-09-08T08:16:49;16.61;;16.49;;;;;;;
62702;SPS30;66022;50.448;18.122;2023-09-08T08:21:15;16.61;;16.49;;;;;;;
62702;SPS30;66022;50.448;18.122;2023-09-08T08:25:41;16.61;;16.49;;;;;;;
62702;SPS30;66022;50.448;18.122;2023-09-08T08:30:07;18.21;;18.21;;;;;;;
62702;SPS30;66022;50.448;18.122;2023-09-08T08:34:33;18.21;;18.21;;;;;;;
62702;SPS30;66022;50.448;18.122;2023-09-08T08:38:58;20.57;;20.03;;;;;;;
62702;SPS30;66022;50.448;18.122;2023-09-08T08:43:25;20.57;;20.03;;;;;;;
62702;SPS30;66022;50.448;18.122;2023-09-08T08:47:51;18.80;;18.80;;;;;;;
62702;SPS30;66022;50.448;18.122;2023-09-08T08:52:17;18.80;;18.80;;;;;;;
62702;SPS30;66022;50.448;18.122;2023-09-08T08:56:43;19.99;;19.89;;;;;;;
62702;SPS30;66022;50.448;18.122;2023-09-08T09:01:09;19.99;;19.89;;;;;;;
62702;SPS30;66022;50.448;18.122;2023-09-08T09:05:34;19.99;;19.89;;;;;;;
62702;SPS30;66022;50.448;18.122;2023-09-08T09:10:01;19.75;;19.75;;;;;;;
62702;SPS30;66022;50.448;18.122;2023-09-08T09:14:27;19.75;;19.75;;;;;;;
62702;SPS30;66022;50.448;18.122;2023-09-08T09:32:23;22.93;;22.93;;;;;;;
62702;SPS30;66022;50.448;18.122;2023-09-08T09:36:49;21.12;;21.12;;;;;;;
62702;SPS30;66022;50.448;18.122;2023-09-08T09:41:15;21.12;;21.12;;;;;;;
62702;SPS30;66022;50.448;18.122;2023-09-08T09:45:41;21.12;;21.12;;;;;;;
62702;SPS30;66022;50.448;18.122;2023-09-08T09:50:07;24.42;;24.42;;;;;;;
62702;SPS30;66022;50.448;18.122;2023-09-08T09:54:33;24.42;;24.42;;;;;;;
62702;SPS30;66022;50.448;18.122;2023-09-08T09:58:59;22.04;;22.04;;;;;;;
62702;SPS30;66022;50.448;18.122;2023-09-08T10:03:25;22.04;;22.04;;;;;;;
62702;SPS30;66022;50.448;18.122;2023-09-08T10:07:51;21.63;;20.56;;;;;;;
62702;SPS30;66022;50.448;18.122;2023-09-08T10:12:17;21.63;;20.56;;;;;;;
62702;SPS30;66022;50.448;18.122;2023-09-08T10:16:43;20.58;;20.58;;;;;;;
62702;SPS30;66022;50.448;18.122;2023-09-08T10:21:09;20.58;;20.58;;;;;;;
62702;SPS30;66022;50.448;18.122;2023-09-08T10:25:37;20.58;;20.58;;;;;;;
62702;SPS30;66022;50.448;18.122;2023-09-08T10:34:41;21.65;;21.65;;;;;;;
62702;SPS30;66022;50.448;18.122;2023-09-08T10:43:33;23.12;;22.10;;;;;;;
62702;SPS30;66022;50.448;18.122;2023-09-08T10:47:59;18.55;;18.55;;;;;;;
62702;SPS30;66022;50.448;18.122;2023-09-08T10:52:25;18.55;;18.55;;;;;;;
62702;SPS30;66022;50.448;18.122;2023-09-08T10:56:54;20.51;;20.09;;;;;;;
62702;SPS30;66022;50.448;18.122;2023-09-08T11:01:17;20.51;;20.09;;;;;;;
62702;SPS30;66022;50.448;18.122;2023-09-08T11:05:42;20.51;;20.09;;;;;;;
62702;SPS30;66022;50.448;18.122;2023-09-08T11:10:09;23.19;;22.76;;;;;;;
62702;SPS30;66022;50.448;18.122;2023-09-08T11:14:35;23.19;;22.76;;;;;;;
62702;SPS30;66022;50.448;18.122;2023-09-08T11:19:01;19.05;;19.04;;;;;;;
62702;SPS30;66022;50.448;18.122;2023-09-08T12:17:49;17.78;;17.23;;;;;;;
62702;SPS30;66022;50.448;18.122;2023-09-08T12:40:21;15.79;;15.44;;;;;;;
62702;SPS30;66022;50.448;18.122;2023-09-08T12:44:56;15.79;;15.44;;;;;;;
62702;SPS30;66022;50.448;18.122;2023-09-08T12:49:23;17.77;;17.33;;;;;;;
62702;SPS30;66022;50.448;18.122;2023-09-08T12:53:46;17.77;;17.33;;;;;;;
62702;SPS30;66022;50.448;18.122;2023-09-08T13:02:59;14.44;;14.44;;;;;;;
62702;SPS30;66022;50.448;18.122;2023-09-08T13:29:38;13.72;;13.72;;;;;;;
62702;SPS30;66022;50.448;18.122;2023-09-08T13:34:03;13.72;;13.72;;;;;;;
62702;SPS30;66022;50.448;18.122;2023-09-08T13:38:29;13.44;;13.44;;;;;;;
62702;SPS30;66022;50.448;18.122;2023-09-08T13:42:55;13.44;;13.44;;;;;;;
62702;SPS30;66022;50.448;18.122;2023-09-08T13:47:21;13.80;;13.80;;;;;;;
62702;SPS30;66022;50.448;18.122;2023-09-08T13:51:47;13.80;;13.80;;;;;;;
62702;SPS30;66022;50.448;18.122;2023-09-08T13:56:13;13.80;;13.80;;;;;;;
62702;SPS30;66022;50.448;18.122;2023-09-08T14:00:39;13.43;;13.43;;;;;;;
62702;SPS30;66022;50.448;18.122;2023-09-08T14:05:05;13.43;;13.43;;;;;;;
62702;SPS30;66022;50.448;18.122;2023-09-08T14:09:31;14.20;;14.20;;;;;;;
62702;SPS30;66022;50.448;18.122;2023-09-08T14:13:57;14.20;;14.20;;;;;;;
62702;SPS30;66022;50.448;18.122;2023-09-08T14:18:23;14.22;;14.22;;;;;;;
62702;SPS30;66022;50.448;18.122;2023-09-08T14:22:49;14.22;;14.22;;;;;;;
62702;SPS30;66022;50.448;18.122;2023-09-08T14:27:16;12.25;;12.25;;;;;;;
62702;SPS30;66022;50.448;18.122;2023-09-08T14:31:41;12.25;;12.25;;;;;;;
62702;SPS30;66022;50.448;18.122;2023-09-08T14:36:07;12.25;;12.25;;;;;;;
62702;SPS30;66022;50.448;18.122;2023-09-08T14:40:41;14.87;;14.87;;;;;;;
62702;SPS30;66022;50.448;18.122;2023-09-08T14:45:04;14.87;;14.87;;;;;;;
62702;SPS30;66022;50.448;18.122;2023-09-08T14:49:27;13.20;;13.20;;;;;;;
62702;SPS30;66022;50.448;18.122;2023-09-08T14:58:23;14.13;;13.72;;;;;;;
62702;SPS30;66022;50.448;18.122;2023-09-08T15:02:49;14.13;;13.72;;;;;;;
62702;SPS30;66022;50.448;18.122;2023-09-08T15:07:15;13.68;;13.64;;;;;;;
62702;SPS30;66022;50.448;18.122;2023-09-08T15:11:41;13.68;;13.64;;;;;;;
62702;SPS30;66022;50.448;18.122;2023-09-08T15:16:07;13.68;;13.64;;;;;;;
62702;SPS30;66022;50.448;18.122;2023-09-08T15:20:33;12.40;;12.40;;;;;;;
62702;SPS30;66022;50.448;18.122;2023-09-08T15:24:59;12.40;;12.40;;;;;;;
62702;SPS30;66022;50.448;18.122;2023-09-08T15:29:25;9.97;;9.97;;;;;;;
62702;SPS30;66022;50.448;18.122;2023-09-08T15:33:51;9.97;;9.97;;;;;;;
62702;SPS30;66022;50.448;18.122;2023-09-08T15:38:17;10.24;;10.24;;;;;;;
62702;SPS30;66022;50.448;18.122;2023-09-08T15:42:43;10.24;;10.24;;;;;;;
62702;SPS30;66022;50.448;18.122;2023-09-08T15:47:09;11.92;;11.41;;;;;;;
62702;SPS30;66022;50.448;18.122;2023-09-08T15:51:36;11.92;;11.41;;;;;;;
62702;SPS30;66022;50.448;18.122;2023-09-08T15:56:01;11.92;;11.41;;;;;;;
62702;SPS30;66022;50.448;18.122;2023-09-08T16:00:27;9.59;;9.45;;;;;;;
62702;SPS30;66022;50.448;18.122;2023-09-08T16:04:53;9.59;;9.45;;;;;;;
62702;SPS30;66022;50.448;18.122;2023-09-08T16:09:19;12.55;;11.52;;;;;;;
62702;SPS30;66022;50.448;18.122;2023-09-08T16:13:45;12.55;;11.52;;;;;;;
62702;SPS30;66022;50.448;18.122;2023-09-08T16:18:11;10.18;;10.18;;;;;;;
62702;SPS30;66022;50.448;18.122;2023-09-08T16:22:37;10.18;;10.18;;;;;;;
62702;SPS30;66022;50.448;18.122;2023-09-08T16:27:08;10.18;;10.18;;;;;;;
62702;SPS30;66022;50.448;18.122;2023-09-08T16:31:31;11.03;;10.73;;;;;;;
62702;SPS30;66022;50.448;18.122;2023-09-08T16:35:55;11.03;;10.73;;;;;;;
62702;SPS30;66022;50.448;18.122;2023-09-08T16:58:17;10.42;;10.01;;;;;;;
62702;SPS30;66022;50.448;18.122;2023-09-08T17:02:42;10.42;;10.01;;;;;;;
62702;SPS30;66022;50.448;18.122;2023-09-08T17:07:08;10.70;;10.70;;;;;;;
62702;SPS30;66022;50.448;18.122;2023-09-08T17:11:34;10.70;;10.70;;;;;;;
62702;SPS30;66022;50.448;18.122;2023-09-08T17:16:00;10.70;;10.70;;;;;;;
62702;SPS30;66022;50.448;18.122;2023-09-08T17:20:26;11.38;;11.38;;;;;;;
62702;SPS30;66022;50.448;18.122;2023-09-08T17:24:52;11.38;;11.38;;;;;;;
62702;SPS30;66022;50.448;18.122;2023-09-08T17:29:18;15.04;;14.68;;;;;;;
62702;SPS30;66022;50.448;18.122;2023-09-08T17:33:44;15.04;;14.68;;;;;;;
62702;SPS30;66022;50.448;18.122;2023-09-08T17:38:10;12.95;;12.95;;;;;;;
62702;SPS30;66022;50.448;18.122;2023-09-08T17:42:36;12.95;;12.95;;;;;;;
62702;SPS30;66022;50.448;18.122;2023-09-08T17:47:02;12.95;;12.95;;;;;;;
62702;SPS30;66022;50.448;18.122;2023-09-08T17:51:28;16.67;;15.84;;;;;;;
62702;SPS30;66022;50.448;18.122;2023-09-08T17:55:54;16.67;;15.84;;;;;;;
62702;SPS30;66022;50.448;18.122;2023-09-08T18:00:20;18.44;;18.41;;;;;;;
62702;SPS30;66022;50.448;18.122;2023-09-08T18:04:49;18.44;;18.41;;;;;;;
62702;SPS30;66022;50.448;18.122;2023-09-08T18:26:56;25.69;;24.30;;;;;;;
62702;SPS30;66022;50.448;18.122;2023-09-08T18:31:24;19.66;;19.49;;;;;;;
62702;SPS30;66022;50.448;18.122;2023-09-08T18:35:48;19.66;;19.49;;;;;;;
62702;SPS30;66022;50.448;18.122;2023-09-08T18:44:49;29.82;;27.70;;;;;;;
62702;SPS30;66022;50.448;18.122;2023-09-08T18:49:11;17.18;;17.17;;;;;;;
62702;SPS30;66022;50.448;18.122;2023-09-08T18:53:37;17.18;;17.17;;;;;;;
62702;SPS30;66022;50.448;18.122;2023-09-08T18:58:03;13.84;;13.83;;;;;;;
62702;SPS30;66022;50.448;18.122;2023-09-08T19:02:30;13.84;;13.83;;;;;;;
62702;SPS30;66022;50.448;18.122;2023-09-08T19:06:55;13.84;;13.83;;;;;;;
62702;SPS30;66022;50.448;18.122;2023-09-08T19:11:22;13.33;;13.33;;;;;;;
62702;SPS30;66022;50.448;18.122;2023-09-08T19:15:47;13.33;;13.33;;;;;;;
62702;SPS30;66022;50.448;18.122;2023-09-08T19:20:16;13.52;;13.52;;;;;;;
62702;SPS30;66022;50.448;18.122;2023-09-08T19:29:05;13.21;;13.21;;;;;;;
62702;SPS30;66022;50.448;18.122;2023-09-08T19:33:31;13.21;;13.21;;;;;;;
62702;SPS30;66022;50.448;18.122;2023-09-08T19:37:57;13.32;;13.32;;;;;;;
62702;SPS30;66022;50.448;18.122;2023-09-08T19:42:23;13.32;;13.32;;;;;;;
62702;SPS30;66022;50.448;18.122;2023-09-08T19:46:50;13.32;;13.32;;;;;;;
62702;SPS30;66022;50.448;18.122;2023-09-08T19:51:17;14.78;;14.78;;;;;;;
62702;SPS30;66022;50.448;18.122;2023-09-08T19:55:42;14.78;;14.78;;;;;;;
62702;SPS30;66022;50.448;18.122;2023-09-08T20:00:07;15.08;;14.73;;;;;;;
62702;SPS30;66022;50.448;18.122;2023-09-08T20:04:33;15.08;;14.73;;;;;;;
62702;SPS30;66022;50.448;18.122;2023-09-08T20:08:59;16.29;;16.29;;;;;;;
62702;SPS30;66022;50.448;18.122;2023-09-08T20:13:25;16.29;;16.29;;;;;;;
62702;SPS30;66022;50.448;18.122;2023-09-08T20:17:51;31.76;;28.47;;;;;;;
62702;SPS30;66022;50.448;18.122;2023-09-08T20:22:17;31.76;;28.47;;;;;;;
62702;SPS30;66022;50.448;18.122;2023-09-08T20:26:43;31.76;;28.47;;;;;;;
62702;SPS30;66022;50.448;18.122;2023-09-08T20:31:09;23.77;;23.42;;;;;;;
62702;SPS30;66022;50.448;18.122;2023-09-08T20:35:35;23.77;;23.42;;;;;;;
62702;SPS30;66022;50.448;18.122;2023-09-08T20:40:01;22.70;;22.70;;;;;;;
62702;SPS30;66022;50.448;18.122;2023-09-08T20:44:27;22.70;;22.70;;;;;;;
62702;SPS30;66022;50.448;18.122;2023-09-08T20:48:53;18.94;;18.94;;;;;;;
62702;SPS30;66022;50.448;18.122;2023-09-08T20:53:22;18.94;;18.94;;;;;;;
62702;SPS30;66022;50.448;18.122;2023-09-08T20:57:45;18.34;;18.34;;;;;;;
62702;SPS30;66022;50.448;18.122;2023-09-08T21:02:11;18.34;;18.34;;;;;;;
62702;SPS30;66022;50.448;18.122;2023-09-08T21:06:37;18.34;;18.34;;;;;;;
62702;SPS30;66022;50.448;18.122;2023-09-08T21:11:03;15.66;;15.66;;;;;;;
62702;SPS30;66022;50.448;18.122;2023-09-08T21:15:29;15.66;;15.66;;;;;;;
62702;SPS30;66022;50.448;18.122;2023-09-08T21:19:55;13.93;;13.93;;;;;;;
62702;SPS30;66022;50.448;18.122;2023-09-08T21:24:21;13.93;;13.93;;;;;;;
62702;SPS30;66022;50.448;18.122;2023-09-08T21:28:47;14.39;;14.35;;;;;;;
62702;SPS30;66022;50.448;18.122;2023-09-08T21:33:13;14.39;;14.35;;;;;;;
62702;SPS30;66022;50.448;18.122;2023-09-08T21:37:39;14.70;;14.51;;;;;;;
62702;SPS30;66022;50.448;18.122;2023-09-08T21:42:05;14.70;;14.51;;;;;;;
62702;SPS30;66022;50.448;18.122;2023-09-08T21:46:31;14.70;;14.51;;;;;;;
62702;SPS30;66022;50.448;18.122;2023-09-08T21:50:57;17.07;;15.94;;;;;;;
62702;SPS30;66022;50.448;18.122;2023-09-08T21:55:23;17.07;;15.94;;;;;;;
62702;SPS30;66022;50.448;18.122;2023-09-08T21:59:49;15.33;;15.33;;;;;;;
62702;SPS30;66022;50.448;18.122;2023-09-08T22:04:15;15.33;;15.33;;;;;;;
62702;SPS30;66022;50.448;18.122;2023-09-08T22:08:43;15.41;;15.41;;;;;;;
62702;SPS30;66022;50.448;18.122;2023-09-08T22:13:07;15.41;;15.41;;;;;;;
62702;SPS30;66022;50.448;18.122;2023-09-08T22:17:33;16.53;;16.25;;;;;;;
62702;SPS30;66022;50.448;18.122;2023-09-08T22:21:59;16.53;;16.25;;;;;;;
62702;SPS30;66022;50.448;18.122;2023-09-08T22:26:25;16.53;;16.25;;;;;;;
62702;SPS30;66022;50.448;18.122;2023-09-08T22:30:51;15.35;;15.35;;;;;;;
62702;SPS30;66022;50.448;18.122;2023-09-08T22:35:17;15.35;;15.35;;;;;;;
62702;SPS30;66022;50.448;18.122;2023-09-08T22:39:46;16.92;;16.85;;;;;;;
62702;SPS30;66022;50.448;18.122;2023-09-08T22:44:09;16.92;;16.85;;;;;;;
62702;SPS30;66022;50.448;18.122;2023-09-08T22:48:35;16.66;;16.66;;;;;;;
62702;SPS30;66022;50.448;18.122;2023-09-08T22:53:01;16.66;;16.66;;;;;;;
62702;SPS30;66022;50.448;18.122;2023-09-08T22:57:27;17.71;;17.71;;;;;;;
62702;SPS30;66022;50.448;18.122;2023-09-08T23:01:56;17.71;;17.71;;;;;;;
62702;SPS30;66022;50.448;18.122;2023-09-08T23:06:19;17.71;;17.71;;;;;;;
62702;SPS30;66022;50.448;18.122;2023-09-08T23:10:45;15.92;;15.92;;;;;;;
62702;SPS30;66022;50.448;18.122;2023-09-08T23:15:12;15.92;;15.92;;;;;;;
62702;SPS30;66022;50.448;18.122;2023-09-08T23:19:37;18.47;;17.93;;;;;;;
62702;SPS30;66022;50.448;18.122;2023-09-08T23:24:03;18.47;;17.93;;;;;;;
62702;SPS30;66022;50.448;18.122;2023-09-08T23:28:29;16.69;;16.69;;;;;;;
62702;SPS30;66022;50.448;18.122;2023-09-08T23:32:55;16.69;;16.69;;;;;;;
62702;SPS30;66022;50.448;18.122;2023-09-08T23:37:21;17.76;;17.74;;;;;;;
62702;SPS30;66022;50.448;18.122;2023-09-08T23:41:47;17.76;;17.74;;;;;;;
62702;SPS30;66022;50.448;18.122;2023-09-08T23:46:13;17.76;;17.74;;;;;;;
62702;SPS30;66022;50.448;18.122;2023-09-08T23:55:05;20.40;;20.40;;;;;;;
62702;SPS30;66022;50.448;18.122;2023-09-08T23:59:31;21.42;;21.42;;;;;;;
